Accueil
METAR-TAF:

METAR-TAF

Aéroports :

Berlin, New Hampshire, États-Unis

latitude: 44-34-34N, longitude: 071-10-43W, altitude: 353 m

Observation

Le bulletin a été fait il y a 52 minutes, à 22:52 UTC
Vent 5 kt de nord/nord-ouest
Température 19°C
Humidité 32%
Pression 1012 hPa
Visibilité: 16.1 km
Ciel clair

METAR: KBML 212252Z AUTO 33005KT 10SM CLR 19/02 A2989 RMK AO2 SLP119 T01940022 $

Heure: 19:44 (23:44 UTC)


TAF: absent

Observations et prévisions météorologiques de plus de 4000 aéroports (messages METAR et TAF).

Les stations disponibles sont représentées par des disques jaunes et rouges sur la carte.

Passer la souris dessus pour voir le nom de la station.

Cliquer dessus pour voir les observations et prévisions météorologiques.

Pour changer de carte: cliquez sur les boutons verts avec une croix noire pour zoomer, sur le bouton vert avec un tiret pour effectuer un zoom arrière, ou sur les flèches vertes pour les cartes adjacentes.


METAR-TAF: